Terminal Aerodrome Forecast
Issued by NWS

Home | Current Version | Previous Version | Text Only | Print | Product List | Glossary On
Versions: 1 2 3 4 5 6 7 8 9 10 11 12 13 14 15 16 17 18 19 20 21 22 23 24 25 26 27 28 29 30 31 32 33 34
000
FTUS45 KGJT 300520
TAFTEX
TAF
KTEX 300520Z 3006/3106 13004KT P6SM SCT100 SCT120
     FM301200 VRB03KT P6SM BKN250
     FM301700 27007KT P6SM VCTS SCT060CB BKN090
     FM310000 28006KT P6SM BKN250=

USA.gov is the U.S. government's official web portal to all federal, state and local government web resources and services.